Web Počasí Slunečno.cz™ (Podmínky, ePrivacy) používá cookies a personalizace pro reklamní účely. Pohybem po stránce vyjadřujete souhlas. Odejít

Aktuální počasí v Česku a ve světě - METAR

Seznam meteostanic umístěných nejčasteji na letišti v ČR a ve světě

Vyhledat místa podle abecedy:
A B C D E F G H I J K L M N O P Q R S T U V W X Y Z

Filtrovat:

ID stanice:
a/nebo
Název místa (fulltext):
 
Místo (ID)Naposledy načteno 
Antwerp (EBAW) 06.12.2021 20:50 UTC Zobrazit METAR
EBAW 062050Z VRB01KT 6000 -RA FEW006 BKN008 02/00 Q1004 BECMG BKN014
Apia (NSFA) 06.12.2021 21:00 UTC Zobrazit METAR
NSFA 062100Z 07008KT 040V110 9999 BKN022 29/25 Q1010
Aruba I (TNCA) 06.12.2021 21:00 UTC Zobrazit METAR
TNCA 062100Z 10021KT 9999 FEW019 29/23 Q1012 NOSIG
Ascension I. (FHAW) 01.12.2021 12:30 UTC Zobrazit METAR
FHAW 011230Z 19009KT 160V220 9999 SCT015 31/26 Q1010 NOSIG
Ashgabat (UTAA) 06.12.2021 21:00 UTC Zobrazit METAR
UTAA 062100Z 26008KT 9999 NSC 07/04 Q1024 R88/CLRD70 NOSIG
Asmara (HHAS) 03.02.2015 17:00 UTC Zobrazit METAR
HHAS 031700Z 27004KT CAVOK 15/06 Q1028 NOSIG
Astana (UACC) Zatím nenačteno  
Astrakhan (URWA) Zatím nenačteno  
Asuncion (SGAS) 06.12.2021 21:00 UTC Zobrazit METAR
SGAS 062100Z 15013KT 9999 FEW033 32/16 Q1013
Athens (LGAV) 06.12.2021 19:50 UTC Zobrazit METAR
LGAV 061950Z 18017G28KT 9999 FEW020 SCT040 16/09 Q1005 NOSIG
Baghdad (ORBS) 06.06.2012 04:00 UTC  
Bagram (KQSA) 11.05.2016 15:58 UTC Zobrazit METAR
KQSA 111558Z VRB06KT 9999 BKN140 21/09 A3000 RMK AO2A SLP070 T02080091 $
Bahrain (OBBI) 06.12.2021 21:00 UTC Zobrazit METAR
OBBI 062100Z 13005KT CAVOK 21/12 Q1017 NOSIG
Baku (UBBB) 06.12.2021 21:00 UTC Zobrazit METAR
UBBB 062100Z 16004KT 9999 BKN011 09/08 Q1024 NOSIG
Bamako (GABS) 06.12.2021 21:00 UTC Zobrazit METAR
GABS 062100Z 06007KT 8000 NSC 27/03 Q1014 NOSIG
Bandar Seri Begawan (WBSB) 06.12.2021 21:00 UTC Zobrazit METAR
WBSB 062100Z 20004KT 9999 FEW014 SCT140 BKN300 24/24 Q1009 NOSIG
Bangkok (VTBD) 06.12.2021 21:00 UTC Zobrazit METAR
VTBD 062100Z 01002KT 9999 FEW030 22/15 Q1014 NOSIG
Bangui (FEFF) 06.12.2021 12:00 UTC Zobrazit METAR
FEFF 061200Z VRB03KT 9999 SCT023 35/24 Q1008 NOSIG
Banja Luka (LQBK) 06.12.2021 21:00 UTC Zobrazit METAR
LQBK 062100Z 31005KT 9999 FEW035 SCT047 03/M01 Q1012 NOSIG
Banjul (GBYD) 06.12.2021 21:00 UTC Zobrazit METAR
GBYD 062100Z 36004KT CAVOK 25/15 Q1011
Barbados (TBPB) 06.12.2021 21:00 UTC Zobrazit METAR
TBPB 062100Z 09017KT 9999 SCT018 27/20 Q1013 NOSIG
Barcelona (LEBL) 06.12.2021 21:00 UTC Zobrazit METAR
LEBL 062100Z 29003KT CAVOK 07/03 Q1018 NOSIG
Bari (LIBD) 06.12.2021 20:50 UTC Zobrazit METAR
LIBD 062050Z 28015KT 250V340 4000 RA SCT010 SCT020 BKN035 08/08 Q1003
Basle-Mulhouse (LFSB) 06.12.2021 21:00 UTC Zobrazit METAR
LFSB 062100Z AUTO 15006KT 9999 BKN042 OVC120 02/00 Q1013 TEMPO 2000 -SNRA BR BKN008
Basse-Terre (TFFB) Zatím nenačteno  
Basseterre (TKPK) 06.12.2021 21:00 UTC Zobrazit METAR
TKPK 062100Z 08014KT 9999 FEW020 27/22 Q1016
Beijing (ZBAA) Zatím nenačteno  
Beirut (OLBA) 06.12.2021 16:00 UTC Zobrazit METAR
OLBA 061600Z 03004KT 360V060 9999 FEW026 20/13 Q1020 NOSIG
Belfast (EGAA) 06.12.2021 20:50 UTC Zobrazit METAR
EGAA 062050Z 23010KT 9999 FEW007 02/01 Q1003
Belgrade (LYBE) 06.12.2021 21:00 UTC Zobrazit METAR
LYBE 062100Z 28007KT 5000 -DZ BR OVC004 03/03 Q1010 NOSIG
Belize City (MZBZ) 06.12.2021 21:00 UTC Zobrazit METAR
MZBZ 062100Z 08006KT 9999 BKN020 SCT040 30/24 A2998 Q1014 NOSIG RMK DIST SHWR-NE/N
Bergen (ENBR) 06.12.2021 20:50 UTC Zobrazit METAR
ENBR 062050Z 12009KT 9999 FEW050 SCT090 02/M08 Q1003 RMK WIND 1200FT 12025KT
Berlin (EDDT) 09.11.2020 06:50 UTC Zobrazit METAR
EDDT 090650Z 09006KT 050V120 3000 BR OVC003 06/05 Q1027
Bermuda Is (TXKF) 06.12.2021 20:55 UTC Zobrazit METAR
TXKF 062055Z 13013KT 9999 SCT025 SCT240 BKN300 22/18 Q1025
Bern (LSZB) 06.12.2021 20:50 UTC Zobrazit METAR
LSZB 062050Z AUTO 15006KT 9999 BKN110 M00/M02 Q1014
Billund (EKBI) 06.12.2021 20:50 UTC Zobrazit METAR
EKBI 062050Z AUTO 12011KT 090V150 9999 OVC025/// 01/M02 Q1009
Birmingham (EGBB) 06.12.2021 20:50 UTC Zobrazit METAR
EGBB 062050Z 25007KT CAVOK 03/01 Q1006
Bishkek (UAFM) Zatím nenačteno  
Bissau (GGOV) 06.12.2021 21:00 UTC Zobrazit METAR
GGOV 062100Z VRB01KT 7000 NSC 24/18 Q1011 NOSIG
Bogota (SKBO) 06.12.2021 18:00 UTC Zobrazit METAR
SKBO 061800Z 14007KT 9999 SCT025 21/08 Q1026 NOSIG RMK A3030
Bologna (LIPE) 06.12.2021 20:50 UTC Zobrazit METAR
LIPE 062050Z VRB02KT CAVOK 01/M00 Q1012
Bordeaux (LFBD) 06.12.2021 21:00 UTC Zobrazit METAR
LFBD 062100Z AUTO 27007KT 9999 FEW034 OVC200 10/08 Q1020 NOSIG
Bornholm (EKRN) 06.12.2021 20:50 UTC Zobrazit METAR
EKRN 062050Z AUTO 05006KT 9999 OVC036/// 00/M07 Q1015
Brasilia (SBBR) 06.12.2021 13:00 UTC Zobrazit METAR
SBBR 061300Z 28008KT 9999 SCT020 BKN080 25/18 Q1019
Bratislava (LZIB) 06.12.2021 21:00 UTC Zobrazit METAR
LZIB 062100Z 36008KT 9999 FEW022 01/M03 Q1012
Brazzaville (FCBB) 06.12.2021 13:00 UTC Zobrazit METAR
FCBB 061300Z VRB04KT 9999 BKN020 32/23 Q1010 NOSIG
Bremen (EDDW) 06.12.2021 20:50 UTC Zobrazit METAR
EDDW 062050Z 13013KT 9999 FEW010 01/M01 Q1008 NOSIG
Brest (UMBB) Zatím nenačteno  
Brest (LFRB) 06.12.2021 21:00 UTC Zobrazit METAR
LFRB 062100Z AUTO 27005KT 240V300 9999 FEW027 OVC170 07/05 Q1016 NOSIG
Brno (LKTB) 06.12.2021 21:00 UTC Zobrazit METAR
LKTB 062100Z 32006KT 9999 BKN039 01/M03 Q1013 NOSIG
Předchozí 1 2 3 4 ... 9 Další
Reklama

Reklama


Newslettter

Počasí na Váš email

Každý den Vám pošleme předpověď
Emaily chodí ráno a bez reklamy



Odhlásit newsletter

Reklama